sensor_id;sensor_type;location;lat;lon;timestamp;P1;durP1;ratioP1;P2;durP2;ratioP2
8819;SDS011;4446;50.876;4.736;2024-03-23T00:54:55;2.92;;;1.60;;
8819;SDS011;4446;50.876;4.736;2024-03-23T00:57:21;5.65;;;1.90;;
8819;SDS011;4446;50.876;4.736;2024-03-23T00:59:48;2.58;;;1.80;;
8819;SDS011;4446;50.876;4.736;2024-03-23T01:02:14;2.85;;;1.55;;
8819;SDS011;4446;50.876;4.736;2024-03-23T01:04:41;5.00;;;1.65;;
8819;SDS011;4446;50.876;4.736;2024-03-23T01:07:07;3.35;;;1.45;;
8819;SDS011;4446;50.876;4.736;2024-03-23T01:09:34;3.95;;;1.75;;
8819;SDS011;4446;50.876;4.736;2024-03-23T01:12:02;4.15;;;1.70;;
8819;SDS011;4446;50.876;4.736;2024-03-23T01:14:29;4.15;;;1.90;;
8819;SDS011;4446;50.876;4.736;2024-03-23T01:16:55;4.18;;;2.33;;
8819;SDS011;4446;50.876;4.736;2024-03-23T01:19:22;3.05;;;2.10;;
8819;SDS011;4446;50.876;4.736;2024-03-23T01:21:48;3.42;;;2.00;;
8819;SDS011;4446;50.876;4.736;2024-03-23T01:24:15;5.53;;;2.05;;
8819;SDS011;4446;50.876;4.736;2024-03-23T01:26:41;4.50;;;2.03;;
8819;SDS011;4446;50.876;4.736;2024-03-23T01:29:10;6.00;;;2.53;;
8819;SDS011;4446;50.876;4.736;2024-03-23T01:31:36;4.30;;;2.28;;
8819;SDS011;4446;50.876;4.736;2024-03-23T01:34:03;3.45;;;1.75;;
8819;SDS011;4446;50.876;4.736;2024-03-23T01:36:29;3.42;;;2.25;;
8819;SDS011;4446;50.876;4.736;2024-03-23T01:38:56;3.72;;;2.17;;
8819;SDS011;4446;50.876;4.736;2024-03-23T01:41:23;3.63;;;2.03;;
8819;SDS011;4446;50.876;4.736;2024-03-23T01:43:51;3.38;;;2.05;;
8819;SDS011;4446;50.876;4.736;2024-03-23T01:46:18;6.50;;;2.17;;
8819;SDS011;4446;50.876;4.736;2024-03-23T01:48:45;5.45;;;2.50;;
8819;SDS011;4446;50.876;4.736;2024-03-23T01:51:12;4.65;;;2.30;;
8819;SDS011;4446;50.876;4.736;2024-03-23T01:53:39;3.88;;;2.28;;
8819;SDS011;4446;50.876;4.736;2024-03-23T01:56:05;4.57;;;2.30;;
8819;SDS011;4446;50.876;4.736;2024-03-23T01:58:32;8.15;;;2.67;;
8819;SDS011;4446;50.876;4.736;2024-03-23T02:00:59;4.97;;;2.40;;
8819;SDS011;4446;50.876;4.736;2024-03-23T02:03:27;5.85;;;2.83;;
8819;SDS011;4446;50.876;4.736;2024-03-23T02:05:54;3.88;;;2.38;;
8819;SDS011;4446;50.876;4.736;2024-03-23T02:08:22;6.88;;;2.65;;
8819;SDS011;4446;50.876;4.736;2024-03-23T02:10:49;8.10;;;3.10;;
8819;SDS011;4446;50.876;4.736;2024-03-23T02:13:17;5.18;;;2.55;;
8819;SDS011;4446;50.876;4.736;2024-03-23T02:15:43;5.10;;;2.53;;
8819;SDS011;4446;50.876;4.736;2024-03-23T02:18:11;4.93;;;2.22;;
8819;SDS011;4446;50.876;4.736;2024-03-23T02:20:38;4.10;;;2.85;;
8819;SDS011;4446;50.876;4.736;2024-03-23T02:23:10;4.10;;;2.80;;
8819;SDS011;4446;50.876;4.736;2024-03-23T02:25:38;4.78;;;2.35;;
8819;SDS011;4446;50.876;4.736;2024-03-23T02:28:05;5.53;;;2.65;;
8819;SDS011;4446;50.876;4.736;2024-03-23T02:30:31;4.45;;;2.83;;
8819;SDS011;4446;50.876;4.736;2024-03-23T02:32:58;4.63;;;2.40;;
8819;SDS011;4446;50.876;4.736;2024-03-23T02:35:24;3.60;;;2.40;;
8819;SDS011;4446;50.876;4.736;2024-03-23T02:37:51;3.33;;;2.22;;
8819;SDS011;4446;50.876;4.736;2024-03-23T02:40:19;4.65;;;2.55;;
8819;SDS011;4446;50.876;4.736;2024-03-23T02:42:46;3.53;;;2.38;;
8819;SDS011;4446;50.876;4.736;2024-03-23T02:45:12;5.65;;;2.80;;
8819;SDS011;4446;50.876;4.736;2024-03-23T02:47:39;4.03;;;2.35;;
8819;SDS011;4446;50.876;4.736;2024-03-23T02:50:06;4.50;;;2.58;;
8819;SDS011;4446;50.876;4.736;2024-03-23T02:52:34;5.10;;;2.47;;
8819;SDS011;4446;50.876;4.736;2024-03-23T02:55:00;6.47;;;2.60;;
8819;SDS011;4446;50.876;4.736;2024-03-23T02:57:29;8.32;;;2.58;;
8819;SDS011;4446;50.876;4.736;2024-03-23T02:59:55;6.57;;;2.75;;
8819;SDS011;4446;50.876;4.736;2024-03-23T03:02:22;5.25;;;2.70;;
8819;SDS011;4446;50.876;4.736;2024-03-23T03:04:48;6.65;;;2.80;;
8819;SDS011;4446;50.876;4.736;2024-03-23T03:07:15;5.63;;;2.90;;
8819;SDS011;4446;50.876;4.736;2024-03-23T03:09:41;5.18;;;3.08;;
8819;SDS011;4446;50.876;4.736;2024-03-23T03:12:08;7.18;;;2.60;;
8819;SDS011;4446;50.876;4.736;2024-03-23T03:14:36;8.05;;;3.25;;
8819;SDS011;4446;50.876;4.736;2024-03-23T03:17:03;6.40;;;3.63;;
8819;SDS011;4446;50.876;4.736;2024-03-23T03:19:29;7.25;;;3.38;;
8819;SDS011;4446;50.876;4.736;2024-03-23T03:21:57;6.38;;;3.67;;
8819;SDS011;4446;50.876;4.736;2024-03-23T03:24:23;8.57;;;3.17;;
8819;SDS011;4446;50.876;4.736;2024-03-23T03:26:50;7.22;;;3.17;;
8819;SDS011;4446;50.876;4.736;2024-03-23T03:29:16;5.93;;;3.55;;
8819;SDS011;4446;50.876;4.736;2024-03-23T03:31:44;4.53;;;3.08;;
8819;SDS011;4446;50.876;4.736;2024-03-23T03:34:11;5.63;;;3.45;;
8819;SDS011;4446;50.876;4.736;2024-03-23T03:36:38;5.47;;;3.00;;
8819;SDS011;4446;50.876;4.736;2024-03-23T03:39:04;5.78;;;2.83;;
8819;SDS011;4446;50.876;4.736;2024-03-23T03:41:31;5.80;;;3.30;;
8819;SDS011;4446;50.876;4.736;2024-03-23T03:43:57;6.60;;;3.58;;
8819;SDS011;4446;50.876;4.736;2024-03-23T03:46:27;7.97;;;3.03;;
8819;SDS011;4446;50.876;4.736;2024-03-23T03:48:55;4.68;;;2.75;;
8819;SDS011;4446;50.876;4.736;2024-03-23T03:51:22;5.35;;;3.03;;
8819;SDS011;4446;50.876;4.736;2024-03-23T03:53:48;7.40;;;3.10;;
8819;SDS011;4446;50.876;4.736;2024-03-23T03:56:15;5.90;;;3.00;;
8819;SDS011;4446;50.876;4.736;2024-03-23T03:58:41;4.40;;;2.95;;
8819;SDS011;4446;50.876;4.736;2024-03-23T04:01:08;9.82;;;3.28;;
8819;SDS011;4446;50.876;4.736;2024-03-23T04:03:34;8.57;;;3.05;;
8819;SDS011;4446;50.876;4.736;2024-03-23T04:06:02;8.00;;;3.05;;
8819;SDS011;4446;50.876;4.736;2024-03-23T04:08:29;8.98;;;3.38;;
8819;SDS011;4446;50.876;4.736;2024-03-23T04:10:56;9.90;;;3.15;;
8819;SDS011;4446;50.876;4.736;2024-03-23T04:13:21;8.35;;;3.60;;
8819;SDS011;4446;50.876;4.736;2024-03-23T04:15:48;6.15;;;3.58;;
8819;SDS011;4446;50.876;4.736;2024-03-23T04:18:18;8.93;;;3.65;;
8819;SDS011;4446;50.876;4.736;2024-03-23T04:20:46;7.93;;;3.15;;
8819;SDS011;4446;50.876;4.736;2024-03-23T04:23:14;4.88;;;3.30;;
8819;SDS011;4446;50.876;4.736;2024-03-23T04:25:41;4.75;;;3.45;;
8819;SDS011;4446;50.876;4.736;2024-03-23T04:28:07;9.57;;;3.72;;
8819;SDS011;4446;50.876;4.736;2024-03-23T04:30:34;6.13;;;3.72;;
8819;SDS011;4446;50.876;4.736;2024-03-23T04:33:00;7.65;;;3.78;;
8819;SDS011;4446;50.876;4.736;2024-03-23T04:35:27;9.68;;;3.72;;
8819;SDS011;4446;50.876;4.736;2024-03-23T04:37:53;7.07;;;3.97;;
8819;SDS011;4446;50.876;4.736;2024-03-23T04:40:22;6.50;;;3.42;;
8819;SDS011;4446;50.876;4.736;2024-03-23T04:42:49;6.90;;;4.00;;
8819;SDS011;4446;50.876;4.736;2024-03-23T04:45:16;8.85;;;3.65;;
8819;SDS011;4446;50.876;4.736;2024-03-23T04:47:43;10.98;;;4.50;;
8819;SDS011;4446;50.876;4.736;2024-03-23T04:50:10;7.13;;;4.18;;
8819;SDS011;4446;50.876;4.736;2024-03-23T04:52:36;10.63;;;5.38;;
8819;SDS011;4446;50.876;4.736;2024-03-23T04:55:03;11.57;;;5.15;;
8819;SDS011;4446;50.876;4.736;2024-03-23T04:57:32;11.02;;;4.45;;
8819;SDS011;4446;50.876;4.736;2024-03-23T04:59:58;9.45;;;5.13;;
8819;SDS011;4446;50.876;4.736;2024-03-23T05:02:25;10.40;;;5.07;;
8819;SDS011;4446;50.876;4.736;2024-03-23T05:04:52;9.90;;;4.82;;
8819;SDS011;4446;50.876;4.736;2024-03-23T05:07:18;8.50;;;4.63;;
8819;SDS011;4446;50.876;4.736;2024-03-23T05:09:45;7.35;;;4.25;;
8819;SDS011;4446;50.876;4.736;2024-03-23T05:12:11;8.85;;;4.97;;
8819;SDS011;4446;50.876;4.736;2024-03-23T05:14:39;7.38;;;4.63;;
8819;SDS011;4446;50.876;4.736;2024-03-23T05:17:05;8.07;;;4.28;;
8819;SDS011;4446;50.876;4.736;2024-03-23T05:19:32;8.75;;;4.85;;
8819;SDS011;4446;50.876;4.736;2024-03-23T05:21:58;7.82;;;4.40;;
8819;SDS011;4446;50.876;4.736;2024-03-23T05:24:25;8.25;;;4.05;;
8819;SDS011;4446;50.876;4.736;2024-03-23T05:26:51;6.22;;;3.72;;
8819;SDS011;4446;50.876;4.736;2024-03-23T05:29:18;6.93;;;3.60;;
8819;SDS011;4446;50.876;4.736;2024-03-23T05:31:49;7.97;;;3.72;;
8819;SDS011;4446;50.876;4.736;2024-03-23T05:34:17;8.75;;;4.00;;
8819;SDS011;4446;50.876;4.736;2024-03-23T05:36:43;11.15;;;4.28;;
8819;SDS011;4446;50.876;4.736;2024-03-23T05:39:10;6.63;;;3.80;;
8819;SDS011;4446;50.876;4.736;2024-03-23T05:41:36;12.13;;;4.45;;
8819;SDS011;4446;50.876;4.736;2024-03-23T05:44:03;11.60;;;3.45;;
8819;SDS011;4446;50.876;4.736;2024-03-23T05:46:29;7.38;;;3.65;;
8819;SDS011;4446;50.876;4.736;2024-03-23T05:48:58;4.80;;;3.65;;
8819;SDS011;4446;50.876;4.736;2024-03-23T05:51:27;8.80;;;3.42;;
8819;SDS011;4446;50.876;4.736;2024-03-23T05:53:54;7.03;;;3.30;;
8819;SDS011;4446;50.876;4.736;2024-03-23T05:56:20;6.15;;;3.42;;
8819;SDS011;4446;50.876;4.736;2024-03-23T05:58:47;7.30;;;3.70;;
8819;SDS011;4446;50.876;4.736;2024-03-23T06:01:13;7.60;;;3.55;;
8819;SDS011;4446;50.876;4.736;2024-03-23T06:03:40;6.15;;;3.80;;
8819;SDS011;4446;50.876;4.736;2024-03-23T06:06:10;10.48;;;4.00;;
8819;SDS011;4446;50.876;4.736;2024-03-23T06:08:38;9.70;;;4.95;;
8819;SDS011;4446;50.876;4.736;2024-03-23T06:11:04;8.85;;;4.68;;
8819;SDS011;4446;50.876;4.736;2024-03-23T06:13:31;13.27;;;4.85;;
8819;SDS011;4446;50.876;4.736;2024-03-23T06:15:57;7.43;;;3.97;;
8819;SDS011;4446;50.876;4.736;2024-03-23T06:18:24;9.07;;;4.15;;
8819;SDS011;4446;50.876;4.736;2024-03-23T06:20:50;7.65;;;4.60;;
8819;SDS011;4446;50.876;4.736;2024-03-23T06:23:19;10.13;;;4.47;;
8819;SDS011;4446;50.876;4.736;2024-03-23T06:25:45;6.78;;;3.65;;
8819;SDS011;4446;50.876;4.736;2024-03-23T06:28:12;12.50;;;4.70;;
8819;SDS011;4446;50.876;4.736;2024-03-23T06:30:39;8.32;;;4.00;;
8819;SDS011;4446;50.876;4.736;2024-03-23T06:33:06;11.40;;;3.67;;
8819;SDS011;4446;50.876;4.736;2024-03-23T06:35:33;10.23;;;4.50;;
8819;SDS011;4446;50.876;4.736;2024-03-23T06:37:59;11.68;;;4.00;;
8819;SDS011;4446;50.876;4.736;2024-03-23T06:40:27;6.88;;;4.05;;
8819;SDS011;4446;50.876;4.736;2024-03-23T06:42:53;8.00;;;3.65;;
8819;SDS011;4446;50.876;4.736;2024-03-23T06:45:20;6.80;;;3.83;;
8819;SDS011;4446;50.876;4.736;2024-03-23T06:47:48;8.30;;;3.58;;
8819;SDS011;4446;50.876;4.736;2024-03-23T06:50:15;8.07;;;4.43;;
8819;SDS011;4446;50.876;4.736;2024-03-23T06:52:41;6.60;;;3.33;;
8819;SDS011;4446;50.876;4.736;2024-03-23T06:55:08;10.07;;;3.65;;
8819;SDS011;4446;50.876;4.736;2024-03-23T06:57:36;4.28;;;2.85;;
8819;SDS011;4446;50.876;4.736;2024-03-23T07:00:03;5.55;;;3.63;;
8819;SDS011;4446;50.876;4.736;2024-03-23T07:02:30;5.93;;;3.22;;
8819;SDS011;4446;50.876;4.736;2024-03-23T07:04:57;5.68;;;2.55;;
8819;SDS011;4446;50.876;4.736;2024-03-23T07:07:23;6.10;;;3.33;;
8819;SDS011;4446;50.876;4.736;2024-03-23T07:09:50;5.28;;;2.60;;
8819;SDS011;4446;50.876;4.736;2024-03-23T07:12:17;4.78;;;2.58;;
8819;SDS011;4446;50.876;4.736;2024-03-23T07:14:46;3.92;;;2.58;;
8819;SDS011;4446;50.876;4.736;2024-03-23T07:17:12;6.75;;;3.00;;
8819;SDS011;4446;50.876;4.736;2024-03-23T07:19:39;3.25;;;2.17;;
8819;SDS011;4446;50.876;4.736;2024-03-23T07:22:05;4.85;;;2.53;;
8819;SDS011;4446;50.876;4.736;2024-03-23T07:24:32;6.40;;;2.10;;
8819;SDS011;4446;50.876;4.736;2024-03-23T07:26:58;6.03;;;2.10;;
8819;SDS011;4446;50.876;4.736;2024-03-23T07:29:25;6.15;;;2.95;;
8819;SDS011;4446;50.876;4.736;2024-03-23T07:31:52;6.55;;;2.15;;
8819;SDS011;4446;50.876;4.736;2024-03-23T07:34:19;12.35;;;2.95;;
8819;SDS011;4446;50.876;4.736;2024-03-23T07:36:45;7.53;;;2.40;;
8819;SDS011;4446;50.876;4.736;2024-03-23T07:39:12;9.63;;;2.03;;
8819;SDS011;4446;50.876;4.736;2024-03-23T07:41:38;3.45;;;2.20;;
8819;SDS011;4446;50.876;4.736;2024-03-23T07:44:05;4.80;;;2.22;;
8819;SDS011;4446;50.876;4.736;2024-03-23T07:46:31;5.90;;;1.95;;
8819;SDS011;4446;50.876;4.736;2024-03-23T07:48:59;4.85;;;2.13;;
8819;SDS011;4446;50.876;4.736;2024-03-23T07:51:25;3.78;;;1.80;;
8819;SDS011;4446;50.876;4.736;2024-03-23T07:53:52;2.65;;;2.20;;
8819;SDS011;4446;50.876;4.736;2024-03-23T07:56:18;4.00;;;1.88;;
8819;SDS011;4446;50.876;4.736;2024-03-23T07:58:46;2.95;;;1.63;;
8819;SDS011;4446;50.876;4.736;2024-03-23T08:01:13;2.05;;;1.58;;
8819;SDS011;4446;50.876;4.736;2024-03-23T08:03:42;10.27;;;2.30;;
8819;SDS011;4446;50.876;4.736;2024-03-23T08:06:11;2.60;;;1.60;;
8819;SDS011;4446;50.876;4.736;2024-03-23T08:08:39;5.25;;;1.95;;
8819;SDS011;4446;50.876;4.736;2024-03-23T08:11:06;4.05;;;1.50;;
8819;SDS011;4446;50.876;4.736;2024-03-23T08:13:34;5.70;;;2.28;;
8819;SDS011;4446;50.876;4.736;2024-03-23T08:16:01;4.30;;;2.10;;
8819;SDS011;4446;50.876;4.736;2024-03-23T08:18:30;4.05;;;2.45;;
8819;SDS011;4446;50.876;4.736;2024-03-23T08:20:56;10.38;;;2.53;;
8819;SDS011;4446;50.876;4.736;2024-03-23T08:23:25;2.40;;;1.65;;
8819;SDS011;4446;50.876;4.736;2024-03-23T08:25:52;5.18;;;1.92;;
8819;SDS011;4446;50.876;4.736;2024-03-23T08:28:24;7.75;;;2.03;;
8819;SDS011;4446;50.876;4.736;2024-03-23T08:30:50;7.72;;;2.10;;
8819;SDS011;4446;50.876;4.736;2024-03-23T08:33:17;6.03;;;2.28;;
8819;SDS011;4446;50.876;4.736;2024-03-23T08:35:43;9.70;;;2.03;;
8819;SDS011;4446;50.876;4.736;2024-03-23T08:38:20;7.10;;;1.92;;
8819;SDS011;4446;50.876;4.736;2024-03-23T08:40:47;3.05;;;1.77;;
8819;SDS011;4446;50.876;4.736;2024-03-23T08:43:14;4.97;;;1.80;;
8819;SDS011;4446;50.876;4.736;2024-03-23T08:45:40;2.97;;;1.40;;
8819;SDS011;4446;50.876;4.736;2024-03-23T08:48:07;2.85;;;1.80;;
8819;SDS011;4446;50.876;4.736;2024-03-23T08:50:34;2.85;;;1.80;;
8819;SDS011;4446;50.876;4.736;2024-03-23T08:53:01;5.78;;;1.90;;
8819;SDS011;4446;50.876;4.736;2024-03-23T08:55:28;5.00;;;1.95;;
8819;SDS011;4446;50.876;4.736;2024-03-23T08:57:56;5.60;;;1.77;;
8819;SDS011;4446;50.876;4.736;2024-03-23T09:00:22;3.90;;;1.73;;
8819;SDS011;4446;50.876;4.736;2024-03-23T09:02:49;2.17;;;1.70;;
8819;SDS011;4446;50.876;4.736;2024-03-23T09:05:15;7.22;;;1.85;;
8819;SDS011;4446;50.876;4.736;2024-03-23T09:07:42;7.13;;;2.00;;
8819;SDS011;4446;50.876;4.736;2024-03-23T09:10:08;3.75;;;1.83;;
8819;SDS011;4446;50.876;4.736;2024-03-23T09:12:35;4.10;;;2.15;;
8819;SDS011;4446;50.876;4.736;2024-03-23T09:15:03;6.43;;;2.15;;
8819;SDS011;4446;50.876;4.736;2024-03-23T09:17:30;5.97;;;2.35;;
8819;SDS011;4446;50.876;4.736;2024-03-23T09:19:56;5.53;;;2.25;;
8819;SDS011;4446;50.876;4.736;2024-03-23T09:22:23;3.95;;;1.92;;
8819;SDS011;4446;50.876;4.736;2024-03-23T09:24:49;3.05;;;1.75;;
8819;SDS011;4446;50.876;4.736;2024-03-23T09:27:16;2.55;;;1.95;;
8819;SDS011;4446;50.876;4.736;2024-03-23T09:29:42;6.07;;;1.88;;
8819;SDS011;4446;50.876;4.736;2024-03-23T09:32:11;4.32;;;1.70;;
8819;SDS011;4446;50.876;4.736;2024-03-23T09:34:37;2.28;;;1.50;;
8819;SDS011;4446;50.876;4.736;2024-03-23T09:37:04;4.47;;;1.73;;
8819;SDS011;4446;50.876;4.736;2024-03-23T09:39:30;2.53;;;1.60;;
8819;SDS011;4446;50.876;4.736;2024-03-23T09:41:57;2.88;;;1.50;;
8819;SDS011;4446;50.876;4.736;2024-03-23T09:44:24;7.25;;;1.80;;
8819;SDS011;4446;50.876;4.736;2024-03-23T09:46:54;2.53;;;1.30;;
8819;SDS011;4446;50.876;4.736;2024-03-23T09:49:22;4.63;;;1.50;;
8819;SDS011;4446;50.876;4.736;2024-03-23T09:51:49;4.90;;;1.50;;
8819;SDS011;4446;50.876;4.736;2024-03-23T09:54:16;3.28;;;1.50;;
8819;SDS011;4446;50.876;4.736;2024-03-23T09:56:43;7.15;;;1.70;;
8819;SDS011;4446;50.876;4.736;2024-03-23T09:59:09;6.78;;;1.77;;
8819;SDS011;4446;50.876;4.736;2024-03-23T10:01:36;4.05;;;2.50;;
8819;SDS011;4446;50.876;4.736;2024-03-23T10:04:02;6.45;;;1.92;;
8819;SDS011;4446;50.876;4.736;2024-03-23T10:06:31;2.33;;;1.50;;
8819;SDS011;4446;50.876;4.736;2024-03-23T10:08:57;6.05;;;1.80;;
8819;SDS011;4446;50.876;4.736;2024-03-23T10:11:24;4.38;;;1.75;;
8819;SDS011;4446;50.876;4.736;2024-03-23T10:13:52;2.95;;;1.83;;
8819;SDS011;4446;50.876;4.736;2024-03-23T10:16:22;4.53;;;1.98;;
8819;SDS011;4446;50.876;4.736;2024-03-23T10:18:49;3.80;;;1.77;;
8819;SDS011;4446;50.876;4.736;2024-03-23T10:21:16;7.40;;;2.25;;
8819;SDS011;4446;50.876;4.736;2024-03-23T10:23:45;4.75;;;1.58;;
8819;SDS011;4446;50.876;4.736;2024-03-23T10:26:18;2.50;;;1.67;;
8819;SDS011;4446;50.876;4.736;2024-03-23T10:28:53;2.28;;;1.50;;
8819;SDS011;4446;50.876;4.736;2024-03-23T10:31:22;7.63;;;1.70;;
8819;SDS011;4446;50.876;4.736;2024-03-23T10:33:48;2.53;;;1.55;;
8819;SDS011;4446;50.876;4.736;2024-03-23T10:36:15;2.72;;;1.73;;
8819;SDS011;4446;50.876;4.736;2024-03-23T10:38:43;1.58;;;1.40;;
8819;SDS011;4446;50.876;4.736;2024-03-23T10:41:12;3.85;;;1.83;;
8819;SDS011;4446;50.876;4.736;2024-03-23T10:43:38;1.98;;;1.58;;
8819;SDS011;4446;50.876;4.736;2024-03-23T10:46:05;2.53;;;1.55;;
8819;SDS011;4446;50.876;4.736;2024-03-23T10:48:32;5.50;;;1.83;;
8819;SDS011;4446;50.876;4.736;2024-03-23T10:50:59;2.22;;;1.55;;
8819;SDS011;4446;50.876;4.736;2024-03-23T10:53:26;2.55;;;1.80;;
8819;SDS011;4446;50.876;4.736;2024-03-23T10:55:55;3.85;;;1.40;;
8819;SDS011;4446;50.876;4.736;2024-03-23T10:58:23;2.00;;;1.48;;
8819;SDS011;4446;50.876;4.736;2024-03-23T11:00:53;2.35;;;1.40;;
8819;SDS011;4446;50.876;4.736;2024-03-23T11:03:32;1.52;;;1.17;;
8819;SDS011;4446;50.876;4.736;2024-03-23T11:06:00;1.67;;;0.90;;
8819;SDS011;4446;50.876;4.736;2024-03-23T11:08:31;1.70;;;0.95;;
8819;SDS011;4446;50.876;4.736;2024-03-23T11:11:14;4.32;;;1.30;;
8819;SDS011;4446;50.876;4.736;2024-03-23T11:13:43;3.45;;;1.20;;
8819;SDS011;4446;50.876;4.736;2024-03-23T11:16:17;1.83;;;1.20;;
8819;SDS011;4446;50.876;4.736;2024-03-23T11:18:48;3.42;;;1.20;;
8819;SDS011;4446;50.876;4.736;2024-03-23T11:24:14;2.65;;;0.90;;
8819;SDS011;4446;50.876;4.736;2024-03-23T11:26:43;1.85;;;1.25;;
8819;SDS011;4446;50.876;4.736;2024-03-23T11:29:09;2.97;;;1.15;;
8819;SDS011;4446;50.876;4.736;2024-03-23T11:31:36;1.65;;;1.13;;
8819;SDS011;4446;50.876;4.736;2024-03-23T11:34:03;4.25;;;1.83;;
8819;SDS011;4446;50.876;4.736;2024-03-23T11:36:30;3.63;;;1.20;;
8819;SDS011;4446;50.876;4.736;2024-03-23T11:38:56;0.85;;;0.85;;
8819;SDS011;4446;50.876;4.736;2024-03-23T11:41:23;1.98;;;0.98;;
8819;SDS011;4446;50.876;4.736;2024-03-23T11:43:52;3.17;;;1.10;;
8819;SDS011;4446;50.876;4.736;2024-03-23T11:46:21;1.98;;;0.90;;
8819;SDS011;4446;50.876;4.736;2024-03-23T11:48:49;3.17;;;1.10;;
8819;SDS011;4446;50.876;4.736;2024-03-23T11:51:17;4.28;;;1.10;;
8819;SDS011;4446;50.876;4.736;2024-03-23T11:53:43;2.25;;;1.05;;
8819;SDS011;4446;50.876;4.736;2024-03-23T11:56:10;3.20;;;1.02;;
8819;SDS011;4446;50.876;4.736;2024-03-23T11:58:36;3.35;;;1.00;;
8819;SDS011;4446;50.876;4.736;2024-03-23T12:01:05;1.48;;;1.00;;
8819;SDS011;4446;50.876;4.736;2024-03-23T12:03:35;2.55;;;1.13;;
8819;SDS011;4446;50.876;4.736;2024-03-23T12:06:03;3.40;;;1.23;;
8819;SDS011;4446;50.876;4.736;2024-03-23T12:08:30;2.38;;;1.20;;
8819;SDS011;4446;50.876;4.736;2024-03-23T12:11:05;1.90;;;1.10;;
8819;SDS011;4446;50.876;4.736;2024-03-23T12:13:33;0.98;;;0.80;;
8819;SDS011;4446;50.876;4.736;2024-03-23T12:16:10;2.47;;;1.00;;
8819;SDS011;4446;50.876;4.736;2024-03-23T12:18:37;2.33;;;1.05;;
8819;SDS011;4446;50.876;4.736;2024-03-23T12:21:04;0.85;;;0.85;;
8819;SDS011;4446;50.876;4.736;2024-03-23T12:23:31;0.80;;;0.80;;
8819;SDS011;4446;50.876;4.736;2024-03-23T12:25:58;3.67;;;1.35;;
8819;SDS011;4446;50.876;4.736;2024-03-23T12:28:24;3.15;;;1.05;;
8819;SDS011;4446;50.876;4.736;2024-03-23T12:30:52;2.60;;;1.05;;
8819;SDS011;4446;50.876;4.736;2024-03-23T12:33:20;2.28;;;1.10;;
8819;SDS011;4446;50.876;4.736;2024-03-23T12:35:47;1.80;;;1.00;;
8819;SDS011;4446;50.876;4.736;2024-03-23T12:38:15;4.72;;;1.02;;
8819;SDS011;4446;50.876;4.736;2024-03-23T12:40:42;3.15;;;1.00;;
8819;SDS011;4446;50.876;4.736;2024-03-23T12:43:12;2.80;;;1.45;;
8819;SDS011;4446;50.876;4.736;2024-03-23T12:45:39;2.53;;;1.00;;
8819;SDS011;4446;50.876;4.736;2024-03-23T12:48:06;2.42;;;1.30;;
8819;SDS011;4446;50.876;4.736;2024-03-23T12:50:35;1.08;;;1.00;;
8819;SDS011;4446;50.876;4.736;2024-03-23T12:53:01;2.53;;;0.95;;
8819;SDS011;4446;50.876;4.736;2024-03-23T12:55:28;2.08;;;0.90;;
8819;SDS011;4446;50.876;4.736;2024-03-23T12:57:54;1.55;;;0.90;;
8819;SDS011;4446;50.876;4.736;2024-03-23T13:00:21;1.35;;;1.00;;
8819;SDS011;4446;50.876;4.736;2024-03-23T13:02:47;0.85;;;0.85;;
8819;SDS011;4446;50.876;4.736;2024-03-23T13:05:14;0.88;;;0.88;;
8819;SDS011;4446;50.876;4.736;2024-03-23T13:07:42;1.75;;;0.85;;
8819;SDS011;4446;50.876;4.736;2024-03-23T13:10:09;2.33;;;0.93;;
8819;SDS011;4446;50.876;4.736;2024-03-23T13:12:35;2.78;;;1.10;;
8819;SDS011;4446;50.876;4.736;2024-03-23T13:15:02;1.25;;;0.90;;
8819;SDS011;4446;50.876;4.736;2024-03-23T13:17:29;2.10;;;0.85;;
8819;SDS011;4446;50.876;4.736;2024-03-23T13:19:57;2.90;;;1.00;;
8819;SDS011;4446;50.876;4.736;2024-03-23T13:22:28;1.92;;;0.90;;
8819;SDS011;4446;50.876;4.736;2024-03-23T13:24:56;4.88;;;1.52;;
8819;SDS011;4446;50.876;4.736;2024-03-23T13:27:22;0.70;;;0.70;;
8819;SDS011;4446;50.876;4.736;2024-03-23T13:29:49;3.08;;;1.10;;
8819;SDS011;4446;50.876;4.736;2024-03-23T13:32:15;1.92;;;1.23;;
8819;SDS011;4446;50.876;4.736;2024-03-23T13:34:42;2.50;;;0.90;;
8819;SDS011;4446;50.876;4.736;2024-03-23T13:37:08;2.20;;;1.10;;
8819;SDS011;4446;50.876;4.736;2024-03-23T13:39:36;1.10;;;1.00;;
8819;SDS011;4446;50.876;4.736;2024-03-23T13:42:03;1.10;;;0.95;;
8819;SDS011;4446;50.876;4.736;2024-03-23T13:44:31;1.85;;;1.23;;
8819;SDS011;4446;50.876;4.736;2024-03-23T13:46:57;2.28;;;1.10;;
8819;SDS011;4446;50.876;4.736;2024-03-23T13:49:24;1.30;;;1.13;;
8819;SDS011;4446;50.876;4.736;2024-03-23T13:51:52;1.75;;;0.90;;
8819;SDS011;4446;50.876;4.736;2024-03-23T13:54:19;0.90;;;0.80;;
8819;SDS011;4446;50.876;4.736;2024-03-23T13:56:45;1.85;;;1.00;;
8819;SDS011;4446;50.876;4.736;2024-03-23T13:59:16;2.42;;;1.10;;
8819;SDS011;4446;50.876;4.736;2024-03-23T14:01:42;4.22;;;1.02;;
8819;SDS011;4446;50.876;4.736;2024-03-23T14:04:10;1.13;;;0.80;;
8819;SDS011;4446;50.876;4.736;2024-03-23T14:06:36;2.92;;;0.90;;
8819;SDS011;4446;50.876;4.736;2024-03-23T14:09:03;1.55;;;1.08;;
8819;SDS011;4446;50.876;4.736;2024-03-23T14:11:30;3.88;;;1.00;;
8819;SDS011;4446;50.876;4.736;2024-03-23T14:13:57;1.02;;;0.85;;
8819;SDS011;4446;50.876;4.736;2024-03-23T14:16:24;2.42;;;1.00;;
8819;SDS011;4446;50.876;4.736;2024-03-23T14:18:52;0.75;;;0.70;;
8819;SDS011;4446;50.876;4.736;2024-03-23T14:21:18;0.80;;;0.80;;
8819;SDS011;4446;50.876;4.736;2024-03-23T14:23:45;0.80;;;0.80;;
8819;SDS011;4446;50.876;4.736;2024-03-23T14:26:11;2.58;;;1.30;;
8819;SDS011;4446;50.876;4.736;2024-03-23T14:28:38;1.27;;;1.00;;
8819;SDS011;4446;50.876;4.736;2024-03-23T14:31:04;1.92;;;0.98;;
8819;SDS011;4446;50.876;4.736;2024-03-23T14:33:36;3.97;;;1.20;;
8819;SDS011;4446;50.876;4.736;2024-03-23T14:36:03;6.90;;;1.67;;
8819;SDS011;4446;50.876;4.736;2024-03-23T14:38:31;3.97;;;1.58;;
8819;SDS011;4446;50.876;4.736;2024-03-23T14:40:57;3.92;;;1.25;;
8819;SDS011;4446;50.876;4.736;2024-03-23T14:43:25;1.45;;;1.35;;
8819;SDS011;4446;50.876;4.736;2024-03-23T14:46:07;2.67;;;1.25;;
8819;SDS011;4446;50.876;4.736;2024-03-23T14:48:35;2.03;;;1.40;;
8819;SDS011;4446;50.876;4.736;2024-03-23T14:51:02;1.42;;;1.10;;
8819;SDS011;4446;50.876;4.736;2024-03-23T14:53:31;1.80;;;1.10;;
8819;SDS011;4446;50.876;4.736;2024-03-23T14:55:58;1.00;;;1.00;;
8819;SDS011;4446;50.876;4.736;2024-03-23T14:58:26;1.30;;;1.20;;
8819;SDS011;4446;50.876;4.736;2024-03-23T15:00:52;1.20;;;1.10;;
8819;SDS011;4446;50.876;4.736;2024-03-23T15:03:19;5.15;;;1.10;;
8819;SDS011;4446;50.876;4.736;2024-03-23T15:05:53;1.55;;;1.20;;
8819;SDS011;4446;50.876;4.736;2024-03-23T15:08:25;1.58;;;1.00;;
8819;SDS011;4446;50.876;4.736;2024-03-23T15:10:52;2.85;;;1.30;;
8819;SDS011;4446;50.876;4.736;2024-03-23T15:13:19;4.03;;;1.02;;
8819;SDS011;4446;50.876;4.736;2024-03-23T15:15:48;1.63;;;1.15;;
8819;SDS011;4446;50.876;4.736;2024-03-23T15:18:16;4.10;;;1.38;;
8819;SDS011;4446;50.876;4.736;2024-03-23T15:20:51;1.13;;;1.02;;
8819;SDS011;4446;50.876;4.736;2024-03-23T15:23:20;3.70;;;1.60;;
8819;SDS011;4446;50.876;4.736;2024-03-23T15:25:53;3.33;;;1.15;;
8819;SDS011;4446;50.876;4.736;2024-03-23T15:28:20;6.15;;;1.30;;
8819;SDS011;4446;50.876;4.736;2024-03-23T15:30:47;1.10;;;0.93;;
8819;SDS011;4446;50.876;4.736;2024-03-23T15:33:13;3.78;;;1.08;;
8819;SDS011;4446;50.876;4.736;2024-03-23T15:35:40;3.00;;;0.75;;
8819;SDS011;4446;50.876;4.736;2024-03-23T15:38:07;0.65;;;0.60;;
8819;SDS011;4446;50.876;4.736;2024-03-23T15:40:39;1.40;;;0.80;;
8819;SDS011;4446;50.876;4.736;2024-03-23T15:43:05;1.58;;;0.82;;
8819;SDS011;4446;50.876;4.736;2024-03-23T15:45:31;1.05;;;0.80;;
8819;SDS011;4446;50.876;4.736;2024-03-23T15:47:57;1.95;;;0.93;;
8819;SDS011;4446;50.876;4.736;2024-03-23T15:50:25;4.00;;;0.82;;
8819;SDS011;4446;50.876;4.736;2024-03-23T15:52:51;1.75;;;0.80;;
8819;SDS011;4446;50.876;4.736;2024-03-23T15:55:21;2.35;;;1.00;;
8819;SDS011;4446;50.876;4.736;2024-03-23T15:57:47;1.20;;;1.08;;
8819;SDS011;4446;50.876;4.736;2024-03-23T16:00:15;2.67;;;1.10;;
8819;SDS011;4446;50.876;4.736;2024-03-23T16:02:42;1.20;;;1.10;;
8819;SDS011;4446;50.876;4.736;2024-03-23T16:05:11;5.03;;;1.05;;
8819;SDS011;4446;50.876;4.736;2024-03-23T16:07:37;1.10;;;1.00;;
8819;SDS011;4446;50.876;4.736;2024-03-23T16:10:04;1.42;;;1.10;;
8819;SDS011;4446;50.876;4.736;2024-03-23T16:12:35;1.65;;;1.02;;